sensor_id;sensor_type;location;lat;lon;timestamp;P1;durP1;ratioP1;P2;durP2;ratioP2
60502;SDS011;51448;51.660;5.824;2023-01-10T00:01:44;24.70;;;4.88;;
60502;SDS011;51448;51.660;5.824;2023-01-10T00:04:11;13.50;;;3.85;;
60502;SDS011;51448;51.660;5.824;2023-01-10T00:06:39;22.10;;;4.60;;
60502;SDS011;51448;51.660;5.824;2023-01-10T00:09:08;18.92;;;3.90;;
60502;SDS011;51448;51.660;5.824;2023-01-10T00:11:37;15.00;;;4.38;;
60502;SDS011;51448;51.660;5.824;2023-01-10T00:14:25;21.15;;;4.47;;
60502;SDS011;51448;51.660;5.824;2023-01-10T00:16:54;18.55;;;4.30;;
60502;SDS011;51448;51.660;5.824;2023-01-10T00:19:23;18.98;;;4.55;;
60502;SDS011;51448;51.660;5.824;2023-01-10T00:21:51;14.73;;;4.20;;
60502;SDS011;51448;51.660;5.824;2023-01-10T00:24:18;16.77;;;4.35;;
60502;SDS011;51448;51.660;5.824;2023-01-10T00:26:47;14.77;;;3.80;;
60502;SDS011;51448;51.660;5.824;2023-01-10T00:29:21;14.48;;;3.60;;
60502;SDS011;51448;51.660;5.824;2023-01-10T00:32:01;14.50;;;3.90;;
60502;SDS011;51448;51.660;5.824;2023-01-10T00:34:29;13.48;;;3.60;;
60502;SDS011;51448;51.660;5.824;2023-01-10T00:36:58;22.20;;;4.25;;
60502;SDS011;51448;51.660;5.824;2023-01-10T00:39:26;12.27;;;3.55;;
60502;SDS011;51448;51.660;5.824;2023-01-10T00:41:53;14.02;;;3.40;;
60502;SDS011;51448;51.660;5.824;2023-01-10T00:44:39;17.33;;;4.13;;
60502;SDS011;51448;51.660;5.824;2023-01-10T00:47:07;15.52;;;3.45;;
60502;SDS011;51448;51.660;5.824;2023-01-10T00:49:34;15.80;;;3.38;;
60502;SDS011;51448;51.660;5.824;2023-01-10T00:52:02;19.00;;;4.15;;
60502;SDS011;51448;51.660;5.824;2023-01-10T00:54:30;18.88;;;4.38;;
60502;SDS011;51448;51.660;5.824;2023-01-10T00:56:57;19.60;;;4.03;;
60502;SDS011;51448;51.660;5.824;2023-01-10T00:59:25;17.02;;;4.00;;
60502;SDS011;51448;51.660;5.824;2023-01-10T01:01:52;17.40;;;3.30;;
60502;SDS011;51448;51.660;5.824;2023-01-10T01:04:20;15.52;;;4.50;;
60502;SDS011;51448;51.660;5.824;2023-01-10T01:06:48;17.85;;;3.72;;
60502;SDS011;51448;51.660;5.824;2023-01-10T01:09:16;13.85;;;3.58;;
60502;SDS011;51448;51.660;5.824;2023-01-10T01:11:44;15.00;;;3.92;;
60502;SDS011;51448;51.660;5.824;2023-01-10T01:14:11;15.10;;;3.75;;
60502;SDS011;51448;51.660;5.824;2023-01-10T01:16:39;15.77;;;3.67;;
60502;SDS011;51448;51.660;5.824;2023-01-10T01:19:06;18.02;;;4.38;;
60502;SDS011;51448;51.660;5.824;2023-01-10T01:21:34;19.65;;;4.13;;
60502;SDS011;51448;51.660;5.824;2023-01-10T01:24:01;16.48;;;4.13;;
60502;SDS011;51448;51.660;5.824;2023-01-10T01:26:29;18.63;;;4.40;;
60502;SDS011;51448;51.660;5.824;2023-01-10T01:28:56;19.85;;;4.72;;
60502;SDS011;51448;51.660;5.824;2023-01-10T01:31:24;20.52;;;4.40;;
60502;SDS011;51448;51.660;5.824;2023-01-10T01:33:52;14.60;;;4.65;;
60502;SDS011;51448;51.660;5.824;2023-01-10T01:36:19;20.13;;;4.20;;
60502;SDS011;51448;51.660;5.824;2023-01-10T01:38:47;16.13;;;4.53;;
60502;SDS011;51448;51.660;5.824;2023-01-10T01:41:14;20.83;;;4.28;;
60502;SDS011;51448;51.660;5.824;2023-01-10T01:44:05;18.83;;;4.32;;
60502;SDS011;51448;51.660;5.824;2023-01-10T01:47:03;17.33;;;4.43;;
60502;SDS011;51448;51.660;5.824;2023-01-10T01:49:35;18.98;;;4.55;;
60502;SDS011;51448;51.660;5.824;2023-01-10T01:52:11;16.05;;;4.35;;
60502;SDS011;51448;51.660;5.824;2023-01-10T01:54:51;15.90;;;4.07;;
60502;SDS011;51448;51.660;5.824;2023-01-10T01:57:23;17.77;;;4.50;;
60502;SDS011;51448;51.660;5.824;2023-01-10T01:59:53;18.50;;;4.60;;
60502;SDS011;51448;51.660;5.824;2023-01-10T02:02:27;19.20;;;4.68;;
60502;SDS011;51448;51.660;5.824;2023-01-10T02:05:02;16.85;;;4.43;;
60502;SDS011;51448;51.660;5.824;2023-01-10T02:07:35;22.65;;;4.70;;
60502;SDS011;51448;51.660;5.824;2023-01-10T02:12:42;18.27;;;4.32;;
60502;SDS011;51448;51.660;5.824;2023-01-10T02:15:14;18.20;;;5.15;;
60502;SDS011;51448;51.660;5.824;2023-01-10T02:17:47;21.50;;;4.53;;
60502;SDS011;51448;51.660;5.824;2023-01-10T02:20:18;21.85;;;4.65;;
60502;SDS011;51448;51.660;5.824;2023-01-10T02:28:50;17.90;;;5.20;;
60502;SDS011;51448;51.660;5.824;2023-01-10T02:37:46;22.13;;;5.50;;
60502;SDS011;51448;51.660;5.824;2023-01-10T02:43:47;22.17;;;6.75;;
60502;SDS011;51448;51.660;5.824;2023-01-10T02:46:24;21.98;;;6.22;;
60502;SDS011;51448;51.660;5.824;2023-01-10T02:48:56;27.85;;;7.45;;
60502;SDS011;51448;51.660;5.824;2023-01-10T02:51:27;24.70;;;6.97;;
60502;SDS011;51448;51.660;5.824;2023-01-10T02:56:50;18.95;;;6.10;;
60502;SDS011;51448;51.660;5.824;2023-01-10T03:11:08;19.05;;;5.15;;
60502;SDS011;51448;51.660;5.824;2023-01-10T03:13:42;18.60;;;5.07;;
60502;SDS011;51448;51.660;5.824;2023-01-10T03:16:22;21.35;;;5.43;;
60502;SDS011;51448;51.660;5.824;2023-01-10T03:18:57;20.60;;;5.43;;
60502;SDS011;51448;51.660;5.824;2023-01-10T03:21:30;20.67;;;5.03;;
60502;SDS011;51448;51.660;5.824;2023-01-10T03:24:02;19.45;;;4.95;;
60502;SDS011;51448;51.660;5.824;2023-01-10T03:26:52;18.85;;;4.90;;
60502;SDS011;51448;51.660;5.824;2023-01-10T03:29:28;22.65;;;5.03;;
60502;SDS011;51448;51.660;5.824;2023-01-10T03:32:15;19.45;;;5.18;;
60502;SDS011;51448;51.660;5.824;2023-01-10T03:34:51;20.55;;;5.30;;
60502;SDS011;51448;51.660;5.824;2023-01-10T03:37:37;19.33;;;4.63;;
60502;SDS011;51448;51.660;5.824;2023-01-10T03:40:30;20.73;;;5.25;;
60502;SDS011;51448;51.660;5.824;2023-01-10T03:46:23;20.27;;;4.47;;
60502;SDS011;51448;51.660;5.824;2023-01-10T03:49:03;17.30;;;4.30;;
60502;SDS011;51448;51.660;5.824;2023-01-10T03:51:34;19.35;;;4.47;;
60502;SDS011;51448;51.660;5.824;2023-01-10T03:54:05;21.50;;;4.63;;
60502;SDS011;51448;51.660;5.824;2023-01-10T03:56:45;20.92;;;4.97;;
60502;SDS011;51448;51.660;5.824;2023-01-10T03:59:21;17.10;;;4.78;;
60502;SDS011;51448;51.660;5.824;2023-01-10T04:01:53;18.45;;;4.50;;
60502;SDS011;51448;51.660;5.824;2023-01-10T04:04:21;20.23;;;4.72;;
60502;SDS011;51448;51.660;5.824;2023-01-10T04:06:49;18.55;;;4.50;;
60502;SDS011;51448;51.660;5.824;2023-01-10T04:09:17;22.92;;;4.93;;
60502;SDS011;51448;51.660;5.824;2023-01-10T04:11:44;20.23;;;4.93;;
60502;SDS011;51448;51.660;5.824;2023-01-10T04:14:12;17.80;;;4.30;;
60502;SDS011;51448;51.660;5.824;2023-01-10T04:16:39;19.90;;;4.43;;
60502;SDS011;51448;51.660;5.824;2023-01-10T04:19:06;18.33;;;3.97;;
60502;SDS011;51448;51.660;5.824;2023-01-10T04:21:34;19.63;;;3.90;;
60502;SDS011;51448;51.660;5.824;2023-01-10T04:24:02;20.05;;;4.50;;
60502;SDS011;51448;51.660;5.824;2023-01-10T04:26:29;23.63;;;4.35;;
60502;SDS011;51448;51.660;5.824;2023-01-10T04:28:57;21.67;;;4.65;;
60502;SDS011;51448;51.660;5.824;2023-01-10T04:31:24;21.73;;;5.00;;
60502;SDS011;51448;51.660;5.824;2023-01-10T04:33:53;17.42;;;4.57;;
60502;SDS011;51448;51.660;5.824;2023-01-10T04:36:20;18.85;;;4.50;;
60502;SDS011;51448;51.660;5.824;2023-01-10T04:38:48;22.80;;;4.63;;
60502;SDS011;51448;51.660;5.824;2023-01-10T04:41:15;21.70;;;4.45;;
60502;SDS011;51448;51.660;5.824;2023-01-10T04:43:42;20.60;;;4.00;;
60502;SDS011;51448;51.660;5.824;2023-01-10T04:46:10;18.27;;;4.28;;
60502;SDS011;51448;51.660;5.824;2023-01-10T04:48:37;22.35;;;4.95;;
60502;SDS011;51448;51.660;5.824;2023-01-10T04:51:05;23.52;;;4.78;;
60502;SDS011;51448;51.660;5.824;2023-01-10T04:53:32;23.23;;;5.40;;
60502;SDS011;51448;51.660;5.824;2023-01-10T04:56:00;22.70;;;4.78;;
60502;SDS011;51448;51.660;5.824;2023-01-10T04:58:33;25.63;;;5.55;;
60502;SDS011;51448;51.660;5.824;2023-01-10T05:01:10;21.65;;;4.85;;
60502;SDS011;51448;51.660;5.824;2023-01-10T05:03:45;23.85;;;4.13;;
60502;SDS011;51448;51.660;5.824;2023-01-10T05:06:15;21.90;;;4.25;;
60502;SDS011;51448;51.660;5.824;2023-01-10T05:08:43;24.83;;;4.55;;
60502;SDS011;51448;51.660;5.824;2023-01-10T05:11:11;27.75;;;5.75;;
60502;SDS011;51448;51.660;5.824;2023-01-10T05:13:40;22.23;;;4.30;;
60502;SDS011;51448;51.660;5.824;2023-01-10T05:16:08;20.52;;;4.10;;
60502;SDS011;51448;51.660;5.824;2023-01-10T05:18:35;22.35;;;4.72;;
60502;SDS011;51448;51.660;5.824;2023-01-10T05:21:04;21.35;;;4.90;;
60502;SDS011;51448;51.660;5.824;2023-01-10T05:26:13;19.13;;;4.47;;
60502;SDS011;51448;51.660;5.824;2023-01-10T05:28:45;25.48;;;4.72;;
60502;SDS011;51448;51.660;5.824;2023-01-10T05:31:14;23.50;;;4.47;;
60502;SDS011;51448;51.660;5.824;2023-01-10T05:33:45;27.30;;;5.82;;
60502;SDS011;51448;51.660;5.824;2023-01-10T05:36:15;23.63;;;4.83;;
60502;SDS011;51448;51.660;5.824;2023-01-10T05:38:45;21.50;;;4.70;;
60502;SDS011;51448;51.660;5.824;2023-01-10T05:41:13;21.55;;;4.80;;
60502;SDS011;51448;51.660;5.824;2023-01-10T05:43:40;21.58;;;4.35;;
60502;SDS011;51448;51.660;5.824;2023-01-10T05:46:08;30.05;;;5.45;;
60502;SDS011;51448;51.660;5.824;2023-01-10T05:48:36;23.52;;;4.80;;
60502;SDS011;51448;51.660;5.824;2023-01-10T05:51:03;23.83;;;5.32;;
60502;SDS011;51448;51.660;5.824;2023-01-10T05:53:31;21.83;;;4.88;;
60502;SDS011;51448;51.660;5.824;2023-01-10T05:56:00;26.20;;;4.53;;
60502;SDS011;51448;51.660;5.824;2023-01-10T05:58:29;23.52;;;4.65;;
60502;SDS011;51448;51.660;5.824;2023-01-10T06:00:57;20.20;;;5.00;;
60502;SDS011;51448;51.660;5.824;2023-01-10T06:03:25;29.65;;;5.03;;
60502;SDS011;51448;51.660;5.824;2023-01-10T06:05:53;23.10;;;4.63;;
60502;SDS011;51448;51.660;5.824;2023-01-10T06:08:21;27.42;;;5.35;;
60502;SDS011;51448;51.660;5.824;2023-01-10T06:10:50;25.83;;;5.65;;
60502;SDS011;51448;51.660;5.824;2023-01-10T06:13:18;25.77;;;5.15;;
60502;SDS011;51448;51.660;5.824;2023-01-10T06:15:45;21.15;;;4.35;;
60502;SDS011;51448;51.660;5.824;2023-01-10T06:18:13;23.90;;;4.93;;
60502;SDS011;51448;51.660;5.824;2023-01-10T06:20:41;28.50;;;5.55;;
60502;SDS011;51448;51.660;5.824;2023-01-10T06:23:10;24.83;;;4.88;;
60502;SDS011;51448;51.660;5.824;2023-01-10T06:25:38;26.98;;;4.80;;
60502;SDS011;51448;51.660;5.824;2023-01-10T06:28:09;31.67;;;5.85;;
60502;SDS011;51448;51.660;5.824;2023-01-10T06:30:39;27.98;;;5.57;;
60502;SDS011;51448;51.660;5.824;2023-01-10T06:33:09;30.42;;;4.78;;
60502;SDS011;51448;51.660;5.824;2023-01-10T06:35:38;23.65;;;5.05;;
60502;SDS011;51448;51.660;5.824;2023-01-10T06:38:06;22.70;;;4.28;;
60502;SDS011;51448;51.660;5.824;2023-01-10T06:40:33;26.02;;;5.10;;
60502;SDS011;51448;51.660;5.824;2023-01-10T06:43:01;23.80;;;5.47;;
60502;SDS011;51448;51.660;5.824;2023-01-10T06:45:28;24.60;;;4.60;;
60502;SDS011;51448;51.660;5.824;2023-01-10T06:47:56;25.42;;;5.35;;
60502;SDS011;51448;51.660;5.824;2023-01-10T06:50:24;28.63;;;5.07;;
60502;SDS011;51448;51.660;5.824;2023-01-10T06:52:56;25.70;;;5.07;;
60502;SDS011;51448;51.660;5.824;2023-01-10T06:55:25;30.00;;;5.05;;
60502;SDS011;51448;51.660;5.824;2023-01-10T06:57:55;22.92;;;5.15;;
60502;SDS011;51448;51.660;5.824;2023-01-10T07:00:29;27.10;;;5.45;;
60502;SDS011;51448;51.660;5.824;2023-01-10T07:02:57;23.88;;;5.43;;
60502;SDS011;51448;51.660;5.824;2023-01-10T07:05:27;25.50;;;4.75;;
60502;SDS011;51448;51.660;5.824;2023-01-10T07:07:56;27.70;;;5.18;;
60502;SDS011;51448;51.660;5.824;2023-01-10T07:10:24;34.58;;;5.47;;
60502;SDS011;51448;51.660;5.824;2023-01-10T07:12:55;27.63;;;4.68;;
60502;SDS011;51448;51.660;5.824;2023-01-10T07:15:25;27.08;;;5.47;;
60502;SDS011;51448;51.660;5.824;2023-01-10T07:17:57;26.13;;;4.90;;
60502;SDS011;51448;51.660;5.824;2023-01-10T07:20:25;27.65;;;4.82;;
60502;SDS011;51448;51.660;5.824;2023-01-10T07:22:54;22.40;;;5.18;;
60502;SDS011;51448;51.660;5.824;2023-01-10T07:25:25;31.85;;;5.38;;
60502;SDS011;51448;51.660;5.824;2023-01-10T07:27:55;27.77;;;5.15;;
60502;SDS011;51448;51.660;5.824;2023-01-10T07:30:23;27.42;;;5.00;;
60502;SDS011;51448;51.660;5.824;2023-01-10T07:32:52;30.15;;;4.95;;
60502;SDS011;51448;51.660;5.824;2023-01-10T07:35:24;30.65;;;5.60;;
60502;SDS011;51448;51.660;5.824;2023-01-10T07:37:52;26.45;;;4.80;;
60502;SDS011;51448;51.660;5.824;2023-01-10T07:40:20;26.98;;;5.00;;
60502;SDS011;51448;51.660;5.824;2023-01-10T07:42:47;29.90;;;5.22;;
60502;SDS011;51448;51.660;5.824;2023-01-10T07:45:15;29.15;;;5.38;;
60502;SDS011;51448;51.660;5.824;2023-01-10T07:47:42;30.40;;;5.60;;
60502;SDS011;51448;51.660;5.824;2023-01-10T07:50:10;27.48;;;6.43;;
60502;SDS011;51448;51.660;5.824;2023-01-10T07:52:37;29.38;;;6.25;;
60502;SDS011;51448;51.660;5.824;2023-01-10T07:55:05;26.92;;;5.13;;
60502;SDS011;51448;51.660;5.824;2023-01-10T07:57:33;29.52;;;5.90;;
60502;SDS011;51448;51.660;5.824;2023-01-10T08:00:00;28.10;;;4.78;;
60502;SDS011;51448;51.660;5.824;2023-01-10T08:02:31;26.35;;;5.53;;
60502;SDS011;51448;51.660;5.824;2023-01-10T08:04:58;26.48;;;5.38;;
60502;SDS011;51448;51.660;5.824;2023-01-10T08:07:29;26.63;;;4.70;;
60502;SDS011;51448;51.660;5.824;2023-01-10T08:09:58;25.38;;;5.13;;
60502;SDS011;51448;51.660;5.824;2023-01-10T08:12:25;27.63;;;5.03;;
60502;SDS011;51448;51.660;5.824;2023-01-10T08:14:53;26.52;;;5.30;;
60502;SDS011;51448;51.660;5.824;2023-01-10T08:17:20;34.42;;;5.68;;
60502;SDS011;51448;51.660;5.824;2023-01-10T08:19:49;28.52;;;5.05;;
60502;SDS011;51448;51.660;5.824;2023-01-10T08:22:16;24.58;;;5.30;;
60502;SDS011;51448;51.660;5.824;2023-01-10T08:24:44;27.75;;;5.43;;
60502;SDS011;51448;51.660;5.824;2023-01-10T08:27:11;23.67;;;4.93;;
60502;SDS011;51448;51.660;5.824;2023-01-10T08:29:39;27.13;;;5.22;;
60502;SDS011;51448;51.660;5.824;2023-01-10T08:32:08;28.27;;;5.03;;
60502;SDS011;51448;51.660;5.824;2023-01-10T08:34:35;22.38;;;5.93;;
60502;SDS011;51448;51.660;5.824;2023-01-10T08:37:03;28.65;;;4.85;;
60502;SDS011;51448;51.660;5.824;2023-01-10T08:39:30;29.27;;;5.85;;
60502;SDS011;51448;51.660;5.824;2023-01-10T08:41:58;24.38;;;4.90;;
60502;SDS011;51448;51.660;5.824;2023-01-10T08:44:26;28.75;;;5.38;;
60502;SDS011;51448;51.660;5.824;2023-01-10T08:46:53;27.33;;;4.75;;
60502;SDS011;51448;51.660;5.824;2023-01-10T08:49:22;30.33;;;5.43;;
60502;SDS011;51448;51.660;5.824;2023-01-10T08:51:49;20.98;;;4.50;;
60502;SDS011;51448;51.660;5.824;2023-01-10T08:54:17;27.10;;;6.18;;
60502;SDS011;51448;51.660;5.824;2023-01-10T08:56:44;27.73;;;5.63;;
60502;SDS011;51448;51.660;5.824;2023-01-10T08:59:12;25.90;;;4.88;;
60502;SDS011;51448;51.660;5.824;2023-01-10T09:01:39;24.73;;;4.80;;
60502;SDS011;51448;51.660;5.824;2023-01-10T09:04:07;29.02;;;4.95;;
60502;SDS011;51448;51.660;5.824;2023-01-10T09:06:35;27.60;;;4.63;;
60502;SDS011;51448;51.660;5.824;2023-01-10T09:09:03;24.00;;;5.60;;
60502;SDS011;51448;51.660;5.824;2023-01-10T09:11:31;21.67;;;4.68;;
60502;SDS011;51448;51.660;5.824;2023-01-10T09:13:59;24.13;;;5.63;;
60502;SDS011;51448;51.660;5.824;2023-01-10T09:16:26;26.45;;;5.13;;
60502;SDS011;51448;51.660;5.824;2023-01-10T09:18:53;21.92;;;4.82;;
60502;SDS011;51448;51.660;5.824;2023-01-10T09:21:22;20.05;;;5.03;;
60502;SDS011;51448;51.660;5.824;2023-01-10T09:23:49;27.85;;;5.70;;
60502;SDS011;51448;51.660;5.824;2023-01-10T09:26:17;25.40;;;5.70;;
60502;SDS011;51448;51.660;5.824;2023-01-10T09:28:44;23.40;;;5.03;;
60502;SDS011;51448;51.660;5.824;2023-01-10T09:31:15;20.10;;;4.45;;
60502;SDS011;51448;51.660;5.824;2023-01-10T09:33:43;30.40;;;4.82;;
60502;SDS011;51448;51.660;5.824;2023-01-10T09:36:13;26.50;;;5.35;;
60502;SDS011;51448;51.660;5.824;2023-01-10T09:38:42;27.17;;;5.38;;
60502;SDS011;51448;51.660;5.824;2023-01-10T09:50:01;33.08;;;6.03;;
60502;SDS011;51448;51.660;5.824;2023-01-10T09:52:46;26.80;;;5.55;;
60502;SDS011;51448;51.660;5.824;2023-01-10T09:55:27;22.05;;;5.43;;
60502;SDS011;51448;51.660;5.824;2023-01-10T09:58:03;26.08;;;5.13;;
60502;SDS011;51448;51.660;5.824;2023-01-10T10:00:43;27.30;;;5.22;;
60502;SDS011;51448;51.660;5.824;2023-01-10T10:03:31;29.83;;;5.20;;
60502;SDS011;51448;51.660;5.824;2023-01-10T10:06:33;23.25;;;5.18;;
60502;SDS011;51448;51.660;5.824;2023-01-10T10:09:01;24.63;;;5.40;;
60502;SDS011;51448;51.660;5.824;2023-01-10T10:11:33;20.65;;;5.10;;
60502;SDS011;51448;51.660;5.824;2023-01-10T10:14:36;24.80;;;4.45;;
60502;SDS011;51448;51.660;5.824;2023-01-10T10:21:02;23.15;;;5.22;;
60502;SDS011;51448;51.660;5.824;2023-01-10T10:23:50;25.13;;;5.30;;
60502;SDS011;51448;51.660;5.824;2023-01-10T10:26:33;23.02;;;5.00;;
60502;SDS011;51448;51.660;5.824;2023-01-10T10:29:26;24.85;;;5.30;;
60502;SDS011;51448;51.660;5.824;2023-01-10T10:34:50;30.48;;;5.13;;
60502;SDS011;51448;51.660;5.824;2023-01-10T10:37:27;22.48;;;5.57;;
60502;SDS011;51448;51.660;5.824;2023-01-10T10:42:41;28.00;;;5.05;;
60502;SDS011;51448;51.660;5.824;2023-01-10T10:45:28;22.58;;;4.80;;
60502;SDS011;51448;51.660;5.824;2023-01-10T10:48:21;22.02;;;4.55;;
60502;SDS011;51448;51.660;5.824;2023-01-10T10:50:57;24.17;;;5.28;;
60502;SDS011;51448;51.660;5.824;2023-01-10T10:53:33;24.05;;;4.70;;
60502;SDS011;51448;51.660;5.824;2023-01-10T10:56:02;29.02;;;5.80;;
60502;SDS011;51448;51.660;5.824;2023-01-10T10:58:36;21.67;;;4.72;;
60502;SDS011;51448;51.660;5.824;2023-01-10T11:01:13;21.75;;;4.30;;
60502;SDS011;51448;51.660;5.824;2023-01-10T11:03:47;25.52;;;5.18;;
60502;SDS011;51448;51.660;5.824;2023-01-10T11:06:22;24.75;;;4.68;;
60502;SDS011;51448;51.660;5.824;2023-01-10T11:11:28;25.30;;;4.93;;
60502;SDS011;51448;51.660;5.824;2023-01-10T11:14:07;22.35;;;4.53;;
60502;SDS011;51448;51.660;5.824;2023-01-10T11:16:39;22.58;;;4.70;;
60502;SDS011;51448;51.660;5.824;2023-01-10T11:19:18;22.83;;;4.75;;
60502;SDS011;51448;51.660;5.824;2023-01-10T11:21:55;23.60;;;4.57;;
60502;SDS011;51448;51.660;5.824;2023-01-10T11:24:31;19.35;;;4.15;;
60502;SDS011;51448;51.660;5.824;2023-01-10T11:27:13;26.20;;;4.90;;
60502;SDS011;51448;51.660;5.824;2023-01-10T11:29:55;21.98;;;4.50;;
60502;SDS011;51448;51.660;5.824;2023-01-10T11:32:36;21.80;;;4.78;;
60502;SDS011;51448;51.660;5.824;2023-01-10T11:35:28;20.90;;;4.60;;
60502;SDS011;51448;51.660;5.824;2023-01-10T11:38:21;23.60;;;5.43;;
60502;SDS011;51448;51.660;5.824;2023-01-10T11:40:54;21.60;;;4.38;;
60502;SDS011;51448;51.660;5.824;2023-01-10T11:43:33;18.67;;;4.20;;
60502;SDS011;51448;51.660;5.824;2023-01-10T11:46:05;22.77;;;4.43;;
60502;SDS011;51448;51.660;5.824;2023-01-10T11:48:50;22.63;;;4.35;;
60502;SDS011;51448;51.660;5.824;2023-01-10T11:51:54;19.83;;;4.15;;
60502;SDS011;51448;51.660;5.824;2023-01-10T11:54:29;17.80;;;4.75;;
60502;SDS011;51448;51.660;5.824;2023-01-10T11:57:00;22.33;;;4.85;;
60502;SDS011;51448;51.660;5.824;2023-01-10T11:59:35;15.68;;;4.00;;
60502;SDS011;51448;51.660;5.824;2023-01-10T12:02:13;21.35;;;4.40;;
60502;SDS011;51448;51.660;5.824;2023-01-10T12:04:51;21.25;;;4.22;;
60502;SDS011;51448;51.660;5.824;2023-01-10T12:07:23;21.65;;;4.70;;
60502;SDS011;51448;51.660;5.824;2023-01-10T12:10:00;19.55;;;4.28;;
60502;SDS011;51448;51.660;5.824;2023-01-10T12:12:30;22.08;;;4.28;;
60502;SDS011;51448;51.660;5.824;2023-01-10T12:15:19;18.05;;;4.55;;
60502;SDS011;51448;51.660;5.824;2023-01-10T12:17:57;19.55;;;4.40;;
60502;SDS011;51448;51.660;5.824;2023-01-10T12:23:12;21.10;;;3.90;;
60502;SDS011;51448;51.660;5.824;2023-01-10T12:25:46;21.52;;;4.55;;
60502;SDS011;51448;51.660;5.824;2023-01-10T12:28:19;21.58;;;4.05;;
60502;SDS011;51448;51.660;5.824;2023-01-10T12:30:54;22.67;;;4.80;;
60502;SDS011;51448;51.660;5.824;2023-01-10T12:33:26;21.85;;;4.25;;
60502;SDS011;51448;51.660;5.824;2023-01-10T12:39:13;24.48;;;4.93;;
60502;SDS011;51448;51.660;5.824;2023-01-10T12:42:09;21.65;;;5.10;;
60502;SDS011;51448;51.660;5.824;2023-01-10T12:45:09;22.02;;;4.60;;
60502;SDS011;51448;51.660;5.824;2023-01-10T12:50:33;23.85;;;4.32;;
60502;SDS011;51448;51.660;5.824;2023-01-10T12:55:44;22.02;;;4.57;;
60502;SDS011;51448;51.660;5.824;2023-01-10T12:58:18;19.20;;;3.95;;
60502;SDS011;51448;51.660;5.824;2023-01-10T13:01:01;19.52;;;4.47;;
60502;SDS011;51448;51.660;5.824;2023-01-10T13:03:32;23.77;;;4.45;;
60502;SDS011;51448;51.660;5.824;2023-01-10T13:06:01;21.17;;;4.50;;
60502;SDS011;51448;51.660;5.824;2023-01-10T13:08:33;22.98;;;4.82;;
60502;SDS011;51448;51.660;5.824;2023-01-10T13:11:06;22.15;;;4.32;;
60502;SDS011;51448;51.660;5.824;2023-01-10T13:13:48;20.33;;;4.13;;
60502;SDS011;51448;51.660;5.824;2023-01-10T13:21:38;20.55;;;4.60;;
60502;SDS011;51448;51.660;5.824;2023-01-10T13:24:27;23.45;;;4.95;;
60502;SDS011;51448;51.660;5.824;2023-01-10T13:26:55;19.90;;;4.63;;
60502;SDS011;51448;51.660;5.824;2023-01-10T13:29:28;19.52;;;4.07;;
60502;SDS011;51448;51.660;5.824;2023-01-10T13:32:17;23.63;;;4.95;;
60502;SDS011;51448;51.660;5.824;2023-01-10T13:34:50;24.30;;;4.25;;
60502;SDS011;51448;51.660;5.824;2023-01-10T13:37:36;20.75;;;4.50;;
60502;SDS011;51448;51.660;5.824;2023-01-10T13:40:07;21.90;;;4.25;;
60502;SDS011;51448;51.660;5.824;2023-01-10T13:51:37;19.75;;;3.90;;
60502;SDS011;51448;51.660;5.824;2023-01-10T13:54:57;20.20;;;4.30;;
60502;SDS011;51448;51.660;5.824;2023-01-10T13:57:48;23.80;;;4.47;;
60502;SDS011;51448;51.660;5.824;2023-01-10T14:06:13;19.33;;;3.97;;
60502;SDS011;51448;51.660;5.824;2023-01-10T14:09:02;19.40;;;4.50;;
60502;SDS011;51448;51.660;5.824;2023-01-10T14:14:26;22.90;;;4.60;;
60502;SDS011;51448;51.660;5.824;2023-01-10T14:17:13;18.67;;;4.75;;
60502;SDS011;51448;51.660;5.824;2023-01-10T14:23:00;21.30;;;3.75;;
60502;SDS011;51448;51.660;5.824;2023-01-10T14:25:32;20.23;;;4.15;;
60502;SDS011;51448;51.660;5.824;2023-01-10T14:30:41;20.17;;;3.88;;
60502;SDS011;51448;51.660;5.824;2023-01-10T14:33:12;20.85;;;4.00;;
60502;SDS011;51448;51.660;5.824;2023-01-10T14:35:46;17.70;;;4.20;;
60502;SDS011;51448;51.660;5.824;2023-01-10T14:38:25;19.67;;;3.50;;
60502;SDS011;51448;51.660;5.824;2023-01-10T14:41:10;18.27;;;4.22;;
60502;SDS011;51448;51.660;5.824;2023-01-10T14:43:47;21.10;;;4.07;;
60502;SDS011;51448;51.660;5.824;2023-01-10T14:46:25;20.38;;;4.32;;
60502;SDS011;51448;51.660;5.824;2023-01-10T14:49:17;21.80;;;4.28;;
60502;SDS011;51448;51.660;5.824;2023-01-10T14:52:18;15.50;;;3.42;;
60502;SDS011;51448;51.660;5.824;2023-01-10T14:55:01;19.70;;;3.72;;
60502;SDS011;51448;51.660;5.824;2023-01-10T14:57:37;20.58;;;3.72;;
60502;SDS011;51448;51.660;5.824;2023-01-10T15:00:06;22.88;;;4.43;;
60502;SDS011;51448;51.660;5.824;2023-01-10T15:02:44;15.93;;;3.88;;
60502;SDS011;51448;51.660;5.824;2023-01-10T15:05:16;24.17;;;4.17;;
60502;SDS011;51448;51.660;5.824;2023-01-10T15:07:47;19.77;;;4.18;;
60502;SDS011;51448;51.660;5.824;2023-01-10T15:12:58;19.27;;;4.22;;
60502;SDS011;51448;51.660;5.824;2023-01-10T15:15:32;16.98;;;3.60;;
60502;SDS011;51448;51.660;5.824;2023-01-10T15:18:21;22.38;;;4.28;;
60502;SDS011;51448;51.660;5.824;2023-01-10T15:21:07;19.30;;;4.15;;
60502;SDS011;51448;51.660;5.824;2023-01-10T15:23:40;16.85;;;3.40;;
60502;SDS011;51448;51.660;5.824;2023-01-10T15:26:13;21.52;;;4.20;;
60502;SDS011;51448;51.660;5.824;2023-01-10T15:29:04;16.92;;;3.55;;
60502;SDS011;51448;51.660;5.824;2023-01-10T15:31:39;20.80;;;4.38;;
60502;SDS011;51448;51.660;5.824;2023-01-10T15:34:09;18.02;;;3.78;;
60502;SDS011;51448;51.660;5.824;2023-01-10T15:36:44;19.30;;;3.95;;
60502;SDS011;51448;51.660;5.824;2023-01-10T15:39:29;18.63;;;3.35;;
60502;SDS011;51448;51.660;5.824;2023-01-10T15:42:06;14.57;;;3.25;;
60502;SDS011;51448;51.660;5.824;2023-01-10T15:44:38;16.65;;;3.70;;
60502;SDS011;51448;51.660;5.824;2023-01-10T15:52:54;13.38;;;3.25;;
60502;SDS011;51448;51.660;5.824;2023-01-10T15:58:32;13.73;;;3.08;;
60502;SDS011;51448;51.660;5.824;2023-01-10T16:01:02;12.23;;;2.80;;
60502;SDS011;51448;51.660;5.824;2023-01-10T16:03:38;18.88;;;3.45;;
60502;SDS011;51448;51.660;5.824;2023-01-10T16:06:32;15.73;;;3.13;;
60502;SDS011;51448;51.660;5.824;2023-01-10T16:09:04;14.10;;;3.40;;
60502;SDS011;51448;51.660;5.824;2023-01-10T16:14:31;15.90;;;2.80;;
60502;SDS011;51448;51.660;5.824;2023-01-10T16:17:02;18.20;;;3.42;;
60502;SDS011;51448;51.660;5.824;2023-01-10T16:19:31;14.98;;;3.72;;
60502;SDS011;51448;51.660;5.824;2023-01-10T16:22:00;12.25;;;3.17;;
60502;SDS011;51448;51.660;5.824;2023-01-10T16:24:28;18.00;;;3.03;;
60502;SDS011;51448;51.660;5.824;2023-01-10T16:27:01;15.32;;;3.30;;
60502;SDS011;51448;51.660;5.824;2023-01-10T16:29:32;17.27;;;3.28;;
60502;SDS011;51448;51.660;5.824;2023-01-10T16:32:00;13.88;;;3.20;;
60502;SDS011;51448;51.660;5.824;2023-01-10T16:34:27;14.63;;;3.22;;
60502;SDS011;51448;51.660;5.824;2023-01-10T16:36:55;14.80;;;3.40;;
60502;SDS011;51448;51.660;5.824;2023-01-10T16:39:23;16.52;;;3.30;;
60502;SDS011;51448;51.660;5.824;2023-01-10T16:41:50;16.95;;;3.88;;
60502;SDS011;51448;51.660;5.824;2023-01-10T16:44:36;10.55;;;3.28;;
60502;SDS011;51448;51.660;5.824;2023-01-10T16:47:04;15.52;;;5.32;;
60502;SDS011;51448;51.660;5.824;2023-01-10T16:49:33;13.77;;;4.25;;
60502;SDS011;51448;51.660;5.824;2023-01-10T16:52:00;18.13;;;9.70;;
60502;SDS011;51448;51.660;5.824;2023-01-10T16:54:29;14.13;;;4.43;;
60502;SDS011;51448;51.660;5.824;2023-01-10T16:56:57;18.35;;;8.60;;
60502;SDS011;51448;51.660;5.824;2023-01-10T16:59:24;17.35;;;6.88;;
60502;SDS011;51448;51.660;5.824;2023-01-10T17:01:53;11.65;;;4.68;;